sensor_id;sensor_type;location;lat;lon;timestamp;temperature;humidity
72591;SHT31;60625;51.212;5.952;2022-10-16T00:02:58;14.08;85.30
72591;SHT31;60625;51.212;5.952;2022-10-16T00:07:59;14.07;85.26
72591;SHT31;60625;51.212;5.952;2022-10-16T00:12:59;14.06;85.21
72591;SHT31;60625;51.212;5.952;2022-10-16T00:18:00;14.07;85.06
72591;SHT31;60625;51.212;5.952;2022-10-16T00:23:00;14.08;84.92
72591;SHT31;60625;51.212;5.952;2022-10-16T00:28:01;14.09;84.83
72591;SHT31;60625;51.212;5.952;2022-10-16T00:33:02;14.09;84.74
72591;SHT31;60625;51.212;5.952;2022-10-16T00:38:02;14.09;84.65
72591;SHT31;60625;51.212;5.952;2022-10-16T00:43:02;14.07;84.67
72591;SHT31;60625;51.212;5.952;2022-10-16T00:48:10;14.06;84.71
72591;SHT31;60625;51.212;5.952;2022-10-16T00:53:14;14.03;84.76
72591;SHT31;60625;51.212;5.952;2022-10-16T00:58:16;14.01;84.75
72591;SHT31;60625;51.212;5.952;2022-10-16T01:03:24;13.97;84.80
72591;SHT31;60625;51.212;5.952;2022-10-16T01:08:49;13.95;84.83
72591;SHT31;60625;51.212;5.952;2022-10-16T01:13:59;13.90;84.85
72591;SHT31;60625;51.212;5.952;2022-10-16T01:19:13;13.86;84.90
72591;SHT31;60625;51.212;5.952;2022-10-16T01:29:53;13.82;85.03
72591;SHT31;60625;51.212;5.952;2022-10-16T01:40:32;13.75;85.13
72591;SHT31;60625;51.212;5.952;2022-10-16T01:45:36;13.70;85.19
72591;SHT31;60625;51.212;5.952;2022-10-16T01:50:37;13.67;85.32
72591;SHT31;60625;51.212;5.952;2022-10-16T01:55:41;13.63;85.30
72591;SHT31;60625;51.212;5.952;2022-10-16T02:00:46;13.60;85.33
72591;SHT31;60625;51.212;5.952;2022-10-16T02:10:57;13.58;85.46
72591;SHT31;60625;51.212;5.952;2022-10-16T02:15:58;13.58;85.39
72591;SHT31;60625;51.212;5.952;2022-10-16T02:21:05;13.57;85.40
72591;SHT31;60625;51.212;5.952;2022-10-16T02:26:19;13.60;85.43
72591;SHT31;60625;51.212;5.952;2022-10-16T02:31:49;13.63;85.32
72591;SHT31;60625;51.212;5.952;2022-10-16T02:36:55;13.66;85.21
72591;SHT31;60625;51.212;5.952;2022-10-16T02:41:58;13.69;85.12
72591;SHT31;60625;51.212;5.952;2022-10-16T02:46:59;13.72;85.03
72591;SHT31;60625;51.212;5.952;2022-10-16T02:51:59;13.76;84.90
72591;SHT31;60625;51.212;5.952;2022-10-16T02:57:00;13.79;84.83
72591;SHT31;60625;51.212;5.952;2022-10-16T03:02:00;13.81;84.75
72591;SHT31;60625;51.212;5.952;2022-10-16T03:07:01;13.81;84.70
72591;SHT31;60625;51.212;5.952;2022-10-16T03:12:01;13.82;84.69
72591;SHT31;60625;51.212;5.952;2022-10-16T03:17:02;13.84;84.64
72591;SHT31;60625;51.212;5.952;2022-10-16T03:22:03;13.85;84.60
72591;SHT31;60625;51.212;5.952;2022-10-16T03:27:04;13.85;84.60
72591;SHT31;60625;51.212;5.952;2022-10-16T03:32:04;13.85;84.51
72591;SHT31;60625;51.212;5.952;2022-10-16T03:37:04;13.86;84.54
72591;SHT31;60625;51.212;5.952;2022-10-16T03:42:05;13.84;84.53
72591;SHT31;60625;51.212;5.952;2022-10-16T03:47:05;13.86;84.56
72591;SHT31;60625;51.212;5.952;2022-10-16T03:52:06;13.85;84.58
72591;SHT31;60625;51.212;5.952;2022-10-16T03:57:06;13.85;84.54
72591;SHT31;60625;51.212;5.952;2022-10-16T04:02:07;13.84;84.60
72591;SHT31;60625;51.212;5.952;2022-10-16T04:07:08;13.84;84.60
72591;SHT31;60625;51.212;5.952;2022-10-16T04:12:08;13.84;84.61
72591;SHT31;60625;51.212;5.952;2022-10-16T04:17:08;13.83;84.61
72591;SHT31;60625;51.212;5.952;2022-10-16T04:22:09;13.80;84.65
72591;SHT31;60625;51.212;5.952;2022-10-16T04:27:10;13.79;84.67
72591;SHT31;60625;51.212;5.952;2022-10-16T04:32:10;13.77;84.71
72591;SHT31;60625;51.212;5.952;2022-10-16T04:37:10;13.76;84.78
72591;SHT31;60625;51.212;5.952;2022-10-16T04:42:11;13.74;84.81
72591;SHT31;60625;51.212;5.952;2022-10-16T04:47:11;13.73;84.90
72591;SHT31;60625;51.212;5.952;2022-10-16T04:52:13;13.72;84.99
72591;SHT31;60625;51.212;5.952;2022-10-16T04:57:13;13.73;85.00
72591;SHT31;60625;51.212;5.952;2022-10-16T05:02:14;13.72;85.04
72591;SHT31;60625;51.212;5.952;2022-10-16T05:07:14;13.71;85.09
72591;SHT31;60625;51.212;5.952;2022-10-16T05:12:14;13.70;85.10
72591;SHT31;60625;51.212;5.952;2022-10-16T05:17:15;13.68;85.17
72591;SHT31;60625;51.212;5.952;2022-10-16T05:22:15;13.67;85.20
72591;SHT31;60625;51.212;5.952;2022-10-16T05:27:16;13.65;85.27
72591;SHT31;60625;51.212;5.952;2022-10-16T05:32:19;13.64;85.33
72591;SHT31;60625;51.212;5.952;2022-10-16T05:37:20;13.61;85.40
72591;SHT31;60625;51.212;5.952;2022-10-16T05:42:20;13.58;85.48
72591;SHT31;60625;51.212;5.952;2022-10-16T05:47:21;13.57;85.61
72591;SHT31;60625;51.212;5.952;2022-10-16T05:52:21;13.53;85.64
72591;SHT31;60625;51.212;5.952;2022-10-16T05:57:22;13.50;85.82
72591;SHT31;60625;51.212;5.952;2022-10-16T06:02:22;13.49;85.88
72591;SHT31;60625;51.212;5.952;2022-10-16T06:07:23;13.49;85.93
72591;SHT31;60625;51.212;5.952;2022-10-16T06:12:23;13.48;86.04
72591;SHT31;60625;51.212;5.952;2022-10-16T06:17:24;13.49;86.09
72591;SHT31;60625;51.212;5.952;2022-10-16T06:22:24;13.48;86.03
72591;SHT31;60625;51.212;5.952;2022-10-16T06:27:25;13.47;86.13
72591;SHT31;60625;51.212;5.952;2022-10-16T06:32:26;13.45;86.21
72591;SHT31;60625;51.212;5.952;2022-10-16T06:37:27;13.45;86.29
72591;SHT31;60625;51.212;5.952;2022-10-16T06:42:28;13.46;86.32
72591;SHT31;60625;51.212;5.952;2022-10-16T06:47:28;13.47;86.29
72591;SHT31;60625;51.212;5.952;2022-10-16T06:52:29;13.46;86.25
72591;SHT31;60625;51.212;5.952;2022-10-16T06:57:29;13.46;86.24
72591;SHT31;60625;51.212;5.952;2022-10-16T07:02:30;13.45;86.21
72591;SHT31;60625;51.212;5.952;2022-10-16T07:07:30;13.44;86.29
72591;SHT31;60625;51.212;5.952;2022-10-16T07:12:31;13.45;86.32
72591;SHT31;60625;51.212;5.952;2022-10-16T07:17:32;13.47;86.33
72591;SHT31;60625;51.212;5.952;2022-10-16T07:22:33;13.49;86.34
72591;SHT31;60625;51.212;5.952;2022-10-16T07:27:34;13.56;86.36
72591;SHT31;60625;51.212;5.952;2022-10-16T07:32:34;13.65;86.25
72591;SHT31;60625;51.212;5.952;2022-10-16T07:37:35;13.74;86.20
72591;SHT31;60625;51.212;5.952;2022-10-16T07:42:35;13.86;86.09
72591;SHT31;60625;51.212;5.952;2022-10-16T07:47:36;14.00;85.91
72591;SHT31;60625;51.212;5.952;2022-10-16T07:52:36;14.17;85.67
72591;SHT31;60625;51.212;5.952;2022-10-16T07:57:37;14.37;85.45
72591;SHT31;60625;51.212;5.952;2022-10-16T08:02:37;14.63;85.11
72591;SHT31;60625;51.212;5.952;2022-10-16T08:07:37;14.96;84.32
72591;SHT31;60625;51.212;5.952;2022-10-16T08:12:38;15.28;83.37
72591;SHT31;60625;51.212;5.952;2022-10-16T08:17:38;15.55;82.60
72591;SHT31;60625;51.212;5.952;2022-10-16T08:22:38;15.77;82.00
72591;SHT31;60625;51.212;5.952;2022-10-16T08:27:39;15.96;81.19
72591;SHT31;60625;51.212;5.952;2022-10-16T08:32:40;16.18;80.82
72591;SHT31;60625;51.212;5.952;2022-10-16T08:37:44;16.39;80.21
72591;SHT31;60625;51.212;5.952;2022-10-16T08:53:23;17.03;78.50
72591;SHT31;60625;51.212;5.952;2022-10-16T08:58:29;17.20;77.47
72591;SHT31;60625;51.212;5.952;2022-10-16T09:08:51;17.65;76.15
72591;SHT31;60625;51.212;5.952;2022-10-16T09:14:14;17.87;74.76
72591;SHT31;60625;51.212;5.952;2022-10-16T09:19:37;18.05;74.25
72591;SHT31;60625;51.212;5.952;2022-10-16T09:24:46;18.28;73.56
72591;SHT31;60625;51.212;5.952;2022-10-16T09:29:47;18.40;73.19
72591;SHT31;60625;51.212;5.952;2022-10-16T09:34:52;18.64;73.04
72591;SHT31;60625;51.212;5.952;2022-10-16T09:39:56;18.89;71.18
72591;SHT31;60625;51.212;5.952;2022-10-16T09:44:56;19.01;70.35
72591;SHT31;60625;51.212;5.952;2022-10-16T09:49:58;19.25;70.14
72591;SHT31;60625;51.212;5.952;2022-10-16T09:55:14;19.61;69.61
72591;SHT31;60625;51.212;5.952;2022-10-16T10:00:17;19.82;68.46
72591;SHT31;60625;51.212;5.952;2022-10-16T10:05:27;19.91;67.67
72591;SHT31;60625;51.212;5.952;2022-10-16T10:10:30;19.72;67.21
72591;SHT31;60625;51.212;5.952;2022-10-16T10:15:33;19.64;67.28
72591;SHT31;60625;51.212;5.952;2022-10-16T10:20:41;19.70;66.89
72591;SHT31;60625;51.212;5.952;2022-10-16T10:31:07;20.23;66.64
72591;SHT31;60625;51.212;5.952;2022-10-16T10:46:32;20.71;64.18
72591;SHT31;60625;51.212;5.952;2022-10-16T10:51:54;20.85;62.80
72591;SHT31;60625;51.212;5.952;2022-10-16T11:24:08;22.03;60.27
72591;SHT31;60625;51.212;5.952;2022-10-16T11:29:25;22.28;59.16
72591;SHT31;60625;51.212;5.952;2022-10-16T11:34:38;22.21;58.60
72591;SHT31;60625;51.212;5.952;2022-10-16T11:39:45;22.09;58.83
72591;SHT31;60625;51.212;5.952;2022-10-16T11:55:54;21.96;59.26
72591;SHT31;60625;51.212;5.952;2022-10-16T12:11:38;21.80;58.53
72591;SHT31;60625;51.212;5.952;2022-10-16T12:17:40;21.75;59.10
72591;SHT31;60625;51.212;5.952;2022-10-16T12:22:26;21.66;58.13
72591;SHT31;60625;51.212;5.952;2022-10-16T12:27:30;21.71;57.97
72591;SHT31;60625;51.212;5.952;2022-10-16T12:32:36;21.86;57.90
72591;SHT31;60625;51.212;5.952;2022-10-16T12:37:41;21.91;57.09
72591;SHT31;60625;51.212;5.952;2022-10-16T12:42:43;21.83;56.74
72591;SHT31;60625;51.212;5.952;2022-10-16T12:47:48;22.06;56.45
72591;SHT31;60625;51.212;5.952;2022-10-16T12:52:51;22.21;56.05
72591;SHT31;60625;51.212;5.952;2022-10-16T12:58:08;22.11;55.92
72591;SHT31;60625;51.212;5.952;2022-10-16T13:03:33;21.74;56.31
72591;SHT31;60625;51.212;5.952;2022-10-16T13:09:20;21.66;56.94
72591;SHT31;60625;51.212;5.952;2022-10-16T13:14:42;21.68;57.40
72591;SHT31;60625;51.212;5.952;2022-10-16T13:30:53;21.73;57.77
72591;SHT31;60625;51.212;5.952;2022-10-16T13:35:57;21.69;57.63
72591;SHT31;60625;51.212;5.952;2022-10-16T13:46:06;21.48;57.83
72591;SHT31;60625;51.212;5.952;2022-10-16T13:51:16;21.33;58.47
72591;SHT31;60625;51.212;5.952;2022-10-16T13:56:19;21.27;60.22
72591;SHT31;60625;51.212;5.952;2022-10-16T14:01:24;21.23;60.51
72591;SHT31;60625;51.212;5.952;2022-10-16T14:06:28;21.15;60.71
72591;SHT31;60625;51.212;5.952;2022-10-16T14:11:28;21.02;60.74
72591;SHT31;60625;51.212;5.952;2022-10-16T14:16:30;20.88;62.26
72591;SHT31;60625;51.212;5.952;2022-10-16T14:21:32;20.81;62.28
72591;SHT31;60625;51.212;5.952;2022-10-16T14:26:40;20.72;63.64
72591;SHT31;60625;51.212;5.952;2022-10-16T14:31:53;20.49;65.18
72591;SHT31;60625;51.212;5.952;2022-10-16T14:36:55;20.28;66.19
72591;SHT31;60625;51.212;5.952;2022-10-16T14:41:56;20.09;67.35
72591;SHT31;60625;51.212;5.952;2022-10-16T14:47:06;19.96;68.19
72591;SHT31;60625;51.212;5.952;2022-10-16T14:52:11;19.84;69.14
72591;SHT31;60625;51.212;5.952;2022-10-16T14:57:16;19.75;69.47
72591;SHT31;60625;51.212;5.952;2022-10-16T15:02:30;19.66;68.96
72591;SHT31;60625;51.212;5.952;2022-10-16T15:07:34;19.57;68.99
72591;SHT31;60625;51.212;5.952;2022-10-16T15:12:35;19.48;70.02
72591;SHT31;60625;51.212;5.952;2022-10-16T15:17:35;19.41;70.68
72591;SHT31;60625;51.212;5.952;2022-10-16T15:22:36;19.33;70.99
72591;SHT31;60625;51.212;5.952;2022-10-16T15:27:36;19.27;70.53
72591;SHT31;60625;51.212;5.952;2022-10-16T15:32:40;19.15;71.11
72591;SHT31;60625;51.212;5.952;2022-10-16T15:37:40;19.04;71.32
72591;SHT31;60625;51.212;5.952;2022-10-16T15:42:41;18.97;71.49
72591;SHT31;60625;51.212;5.952;2022-10-16T15:47:42;18.91;71.18
72591;SHT31;60625;51.212;5.952;2022-10-16T15:52:43;18.84;71.35
72591;SHT31;60625;51.212;5.952;2022-10-16T15:57:44;18.77;71.74
72591;SHT31;60625;51.212;5.952;2022-10-16T16:02:49;18.68;72.04
72591;SHT31;60625;51.212;5.952;2022-10-16T16:07:53;18.60;72.45
72591;SHT31;60625;51.212;5.952;2022-10-16T16:12:54;18.50;72.53
72591;SHT31;60625;51.212;5.952;2022-10-16T16:17:54;18.41;73.01
72591;SHT31;60625;51.212;5.952;2022-10-16T16:22:54;18.34;73.61
72591;SHT31;60625;51.212;5.952;2022-10-16T16:27:55;18.25;74.13
72591;SHT31;60625;51.212;5.952;2022-10-16T16:32:55;18.14;74.31
72591;SHT31;60625;51.212;5.952;2022-10-16T16:37:56;18.07;74.35
72591;SHT31;60625;51.212;5.952;2022-10-16T16:42:57;17.98;74.39
72591;SHT31;60625;51.212;5.952;2022-10-16T16:47:57;17.87;74.49
72591;SHT31;60625;51.212;5.952;2022-10-16T16:52:57;17.72;74.76
72591;SHT31;60625;51.212;5.952;2022-10-16T16:57:58;17.64;75.03
72591;SHT31;60625;51.212;5.952;2022-10-16T17:02:58;17.64;75.18
72591;SHT31;60625;51.212;5.952;2022-10-16T17:07:59;17.58;75.38
72591;SHT31;60625;51.212;5.952;2022-10-16T17:13:00;17.51;75.63
72591;SHT31;60625;51.212;5.952;2022-10-16T17:18:00;17.45;75.72
72591;SHT31;60625;51.212;5.952;2022-10-16T17:23:00;17.37;75.87
72591;SHT31;60625;51.212;5.952;2022-10-16T17:28:01;17.33;76.07
72591;SHT31;60625;51.212;5.952;2022-10-16T17:33:03;17.28;76.26
72591;SHT31;60625;51.212;5.952;2022-10-16T17:38:05;17.23;76.27
72591;SHT31;60625;51.212;5.952;2022-10-16T17:43:06;17.15;76.43
72591;SHT31;60625;51.212;5.952;2022-10-16T17:48:07;17.03;76.57
72591;SHT31;60625;51.212;5.952;2022-10-16T17:53:08;16.94;76.85
72591;SHT31;60625;51.212;5.952;2022-10-16T17:58:08;16.89;76.64
72591;SHT31;60625;51.212;5.952;2022-10-16T18:03:09;16.85;76.58
72591;SHT31;60625;51.212;5.952;2022-10-16T18:08:10;16.86;76.51
72591;SHT31;60625;51.212;5.952;2022-10-16T18:13:10;16.88;76.50
72591;SHT31;60625;51.212;5.952;2022-10-16T18:18:10;16.88;76.37
72591;SHT31;60625;51.212;5.952;2022-10-16T18:23:11;16.93;76.11
72591;SHT31;60625;51.212;5.952;2022-10-16T18:28:12;16.97;76.24
72591;SHT31;60625;51.212;5.952;2022-10-16T18:33:13;16.99;76.68
72591;SHT31;60625;51.212;5.952;2022-10-16T18:38:13;16.99;77.23
72591;SHT31;60625;51.212;5.952;2022-10-16T18:43:14;16.99;77.60
72591;SHT31;60625;51.212;5.952;2022-10-16T18:48:14;16.84;78.51
72591;SHT31;60625;51.212;5.952;2022-10-16T18:53:15;16.79;78.75
72591;SHT31;60625;51.212;5.952;2022-10-16T18:58:15;16.78;78.84
72591;SHT31;60625;51.212;5.952;2022-10-16T19:03:15;16.77;79.22
72591;SHT31;60625;51.212;5.952;2022-10-16T19:08:17;16.70;79.49
72591;SHT31;60625;51.212;5.952;2022-10-16T19:13:18;16.66;79.83
72591;SHT31;60625;51.212;5.952;2022-10-16T19:18:18;16.58;80.18
72591;SHT31;60625;51.212;5.952;2022-10-16T19:23:19;16.49;80.45
72591;SHT31;60625;51.212;5.952;2022-10-16T19:28:21;16.43;80.68
72591;SHT31;60625;51.212;5.952;2022-10-16T19:33:21;16.33;80.88
72591;SHT31;60625;51.212;5.952;2022-10-16T19:38:22;16.28;80.87
72591;SHT31;60625;51.212;5.952;2022-10-16T19:43:23;16.23;80.96
72591;SHT31;60625;51.212;5.952;2022-10-16T19:48:23;16.11;80.96
72591;SHT31;60625;51.212;5.952;2022-10-16T19:53:24;16.01;81.10
72591;SHT31;60625;51.212;5.952;2022-10-16T19:58:27;15.99;81.18
72591;SHT31;60625;51.212;5.952;2022-10-16T20:03:28;15.97;81.15
72591;SHT31;60625;51.212;5.952;2022-10-16T20:08:28;15.96;81.12
72591;SHT31;60625;51.212;5.952;2022-10-16T20:13:29;15.93;81.32
72591;SHT31;60625;51.212;5.952;2022-10-16T20:18:30;15.89;81.61
72591;SHT31;60625;51.212;5.952;2022-10-16T20:23:31;15.79;81.82
72591;SHT31;60625;51.212;5.952;2022-10-16T20:28:31;15.67;81.92
72591;SHT31;60625;51.212;5.952;2022-10-16T20:33:32;15.65;82.26
72591;SHT31;60625;51.212;5.952;2022-10-16T20:38:32;15.67;82.32
72591;SHT31;60625;51.212;5.952;2022-10-16T20:43:33;15.66;82.31
72591;SHT31;60625;51.212;5.952;2022-10-16T20:48:36;15.64;82.40
72591;SHT31;60625;51.212;5.952;2022-10-16T20:53:40;15.61;82.28
72591;SHT31;60625;51.212;5.952;2022-10-16T20:58:41;15.57;82.42
72591;SHT31;60625;51.212;5.952;2022-10-16T21:03:43;15.56;82.68
72591;SHT31;60625;51.212;5.952;2022-10-16T21:08:51;15.56;82.86
72591;SHT31;60625;51.212;5.952;2022-10-16T21:13:53;15.55;83.21
72591;SHT31;60625;51.212;5.952;2022-10-16T21:18:59;15.53;83.59
72591;SHT31;60625;51.212;5.952;2022-10-16T21:23:59;15.54;83.70
72591;SHT31;60625;51.212;5.952;2022-10-16T21:29:02;15.54;83.73
72591;SHT31;60625;51.212;5.952;2022-10-16T21:34:05;15.52;83.86
72591;SHT31;60625;51.212;5.952;2022-10-16T21:39:07;15.50;84.11
72591;SHT31;60625;51.212;5.952;2022-10-16T21:44:11;15.44;84.37
72591;SHT31;60625;51.212;5.952;2022-10-16T21:49:14;15.40;84.33
72591;SHT31;60625;51.212;5.952;2022-10-16T21:54:19;15.35;84.30
72591;SHT31;60625;51.212;5.952;2022-10-16T21:59:22;15.34;84.36
72591;SHT31;60625;51.212;5.952;2022-10-16T22:04:22;15.30;84.39
72591;SHT31;60625;51.212;5.952;2022-10-16T22:09:23;15.25;84.50
72591;SHT31;60625;51.212;5.952;2022-10-16T22:14:24;15.17;84.76
72591;SHT31;60625;51.212;5.952;2022-10-16T22:19:24;15.14;84.71
72591;SHT31;60625;51.212;5.952;2022-10-16T22:24:25;15.09;84.82
72591;SHT31;60625;51.212;5.952;2022-10-16T22:29:25;15.10;84.90
72591;SHT31;60625;51.212;5.952;2022-10-16T22:34:25;15.12;85.35
72591;SHT31;60625;51.212;5.952;2022-10-16T22:39:28;15.16;85.42
72591;SHT31;60625;51.212;5.952;2022-10-16T22:44:29;15.20;85.48
72591;SHT31;60625;51.212;5.952;2022-10-16T22:49:29;15.21;85.50
72591;SHT31;60625;51.212;5.952;2022-10-16T22:54:30;15.22;85.32
72591;SHT31;60625;51.212;5.952;2022-10-16T22:59:30;15.20;85.36
72591;SHT31;60625;51.212;5.952;2022-10-16T23:04:31;15.16;85.39
72591;SHT31;60625;51.212;5.952;2022-10-16T23:09:32;15.11;85.40
72591;SHT31;60625;51.212;5.952;2022-10-16T23:14:32;15.08;85.25
72591;SHT31;60625;51.212;5.952;2022-10-16T23:19:33;15.02;85.32
72591;SHT31;60625;51.212;5.952;2022-10-16T23:24:33;14.97;85.26
72591;SHT31;60625;51.212;5.952;2022-10-16T23:29:33;14.93;85.08
72591;SHT31;60625;51.212;5.952;2022-10-16T23:34:34;14.89;85.44
72591;SHT31;60625;51.212;5.952;2022-10-16T23:39:35;14.86;85.29
72591;SHT31;60625;51.212;5.952;2022-10-16T23:44:35;14.82;85.24
72591;SHT31;60625;51.212;5.952;2022-10-16T23:49:37;14.77;85.29
72591;SHT31;60625;51.212;5.952;2022-10-16T23:54:37;14.73;85.22
72591;SHT31;60625;51.212;5.952;2022-10-16T23:59:38;14.69;85.34
